Time;durP1;ratioP1;P1;durP2;ratioP2;P2;SDS_P1;SDS_P2;PMS_P1;PMS_P2;Temp;Humidity;BMP_temperature;BMP_pressure;BME280_temperature;BME280_humidity;BME280_pressure;Samples;Min_cycle;Max_cycle;Signal;HPM_P1;HPM_P2
2022/04/23 00:01:39;;;;;;;12.77;6.95;;;11.10;99.90;;;;;;4973680;28;20100;-60
2022/04/23 00:04:04;;;;;;;13.38;7.35;;;11.10;99.90;;;;;;4946943;28;20084;-59
2022/04/23 00:06:30;;;;;;;12.90;7.00;;;11.10;99.90;;;;;;4989484;28;20045;-60
2022/04/23 00:08:56;;;;;;;14.20;7.70;;;11.10;99.90;;;;;;4983512;28;20045;-59
2022/04/23 00:11:22;;;;;;;13.45;7.68;;;11.00;99.90;;;;;;4955767;28;20138;-59
2022/04/23 00:13:48;;;;;;;13.48;7.68;;;11.00;99.90;;;;;;4968159;28;20164;-60
2022/04/23 00:16:15;;;;;;;11.20;7.07;;;11.00;99.90;;;;;;4982577;28;20085;-58
2022/04/23 00:18:42;;;;;;;14.43;7.85;;;11.00;99.90;;;;;;4974705;28;20564;-58
2022/04/23 00:21:08;;;;;;;12.73;7.30;;;11.00;99.90;;;;;;4987318;28;20330;-59
2022/04/23 00:23:34;;;;;;;12.35;7.80;;;11.00;99.90;;;;;;4966521;28;20049;-59
2022/04/23 00:26:01;;;;;;;8.90;7.10;;;11.00;99.90;;;;;;4980406;28;20042;-59
2022/04/23 00:28:27;;;;;;;12.15;6.93;;;11.00;99.90;;;;;;4973304;28;20041;-59
2022/04/23 00:30:52;;;;;;;10.60;8.00;;;11.00;99.90;;;;;;4993808;28;20053;-59
2022/04/23 00:33:20;;;;;;;13.00;6.60;;;10.90;99.90;;;;;;4978964;28;20034;-59
2022/04/23 00:35:46;;;;;;;11.40;6.68;;;10.90;99.90;;;;;;4973634;28;20133;-58
2022/04/23 00:38:11;;;;;;;13.68;7.75;;;10.80;99.90;;;;;;4981027;28;20081;-59
2022/04/23 00:40:39;;;;;;;12.40;7.93;;;10.90;99.90;;;;;;4965417;28;20172;-59
2022/04/23 00:43:10;;;;;;;12.52;8.27;;;10.80;99.90;;;;;;4987795;28;20124;-59
2022/04/23 00:45:36;;;;;;;11.93;8.18;;;10.80;99.90;;;;;;4961639;28;20416;-59
2022/04/23 00:48:02;;;;;;;11.30;7.18;;;10.80;99.90;;;;;;4987357;28;20062;-60
2022/04/23 00:50:28;;;;;;;11.40;7.05;;;10.70;99.90;;;;;;4985604;28;20539;-59
2022/04/23 00:53:00;;;;;;;11.18;7.30;;;10.70;99.90;;;;;;4972345;28;20044;-59
2022/04/23 00:55:27;;;;;;;15.15;8.32;;;10.70;99.90;;;;;;4990403;28;20116;-60
2022/04/23 00:57:54;;;;;;;14.55;7.75;;;10.60;99.90;;;;;;4991293;28;20034;-59
2022/04/23 01:00:21;;;;;;;11.07;7.88;;;10.60;99.90;;;;;;4980616;28;20048;-59
2022/04/23 01:02:47;;;;;;;15.50;7.72;;;10.60;99.90;;;;;;4968884;28;20378;-59
2022/04/23 01:05:14;;;;;;;13.63;8.18;;;10.60;99.90;;;;;;4956289;28;20049;-58
2022/04/23 01:07:44;;;;;;;15.23;8.43;;;10.60;99.90;;;;;;4972508;28;20065;-58
2022/04/23 01:10:11;;;;;;;13.93;8.40;;;10.50;99.90;;;;;;4990755;28;20096;-59
2022/04/23 01:12:38;;;;;;;10.52;8.65;;;10.50;99.90;;;;;;4985816;28;20403;-59
2022/04/23 01:15:09;;;;;;;12.35;8.38;;;10.50;99.90;;;;;;4979809;28;20048;-59
2022/04/23 01:17:36;;;;;;;15.52;9.02;;;10.50;99.90;;;;;;4974443;28;20500;-58
2022/04/23 01:20:09;;;;;;;12.93;7.85;;;10.50;99.90;;;;;;4956893;28;20054;-58
2022/04/23 01:22:37;;;;;;;12.50;8.57;;;10.50;99.90;;;;;;4981473;28;20064;-59
2022/04/23 01:25:07;;;;;;;14.38;8.52;;;10.40;99.90;;;;;;4984854;28;20048;-59
2022/04/23 01:27:37;;;;;;;14.95;8.55;;;10.40;99.90;;;;;;4978333;28;20132;-59
2022/04/23 01:30:04;;;;;;;11.45;8.52;;;10.40;99.90;;;;;;4992559;28;20049;-59
2022/04/23 01:32:30;;;;;;;13.95;9.55;;;10.40;99.90;;;;;;4972433;28;20041;-58
2022/04/23 01:34:56;;;;;;;15.02;10.10;;;10.30;99.90;;;;;;4992991;28;20049;-59
2022/04/23 01:37:22;;;;;;;13.52;9.77;;;10.30;99.90;;;;;;4984143;28;20238;-59
2022/04/23 01:39:48;;;;;;;13.45;9.85;;;10.20;99.90;;;;;;4956163;28;20053;-58
2022/04/23 01:42:17;;;;;;;14.35;9.35;;;10.20;99.90;;;;;;4956318;28;20034;-59
2022/04/23 01:44:44;;;;;;;17.58;9.70;;;10.10;99.90;;;;;;4965744;28;20050;-59
2022/04/23 01:47:10;;;;;;;15.27;9.35;;;10.10;99.90;;;;;;4958561;28;20161;-59
2022/04/23 01:49:36;;;;;;;12.52;9.38;;;10.10;99.90;;;;;;4978622;28;20473;-57
2022/04/23 01:52:02;;;;;;;15.40;10.13;;;10.10;99.90;;;;;;4966571;28;20046;-58
2022/04/23 01:54:27;;;;;;;13.82;9.43;;;10.00;99.90;;;;;;4969994;28;20038;-58
2022/04/23 01:56:57;;;;;;;15.05;10.73;;;10.00;99.90;;;;;;4975460;28;20050;-59
2022/04/23 01:59:23;;;;;;;16.77;10.82;;;10.00;99.90;;;;;;4961656;28;21170;-59
2022/04/23 02:01:49;;;;;;;14.90;10.95;;;10.00;99.90;;;;;;4977516;28;20374;-58
2022/04/23 02:04:15;;;;;;;17.33;11.25;;;10.00;99.90;;;;;;4978154;28;20334;-59
2022/04/23 02:06:41;;;;;;;15.15;9.98;;;10.00;99.90;;;;;;4977406;28;20587;-58
2022/04/23 02:09:06;;;;;;;13.93;11.02;;;10.10;99.90;;;;;;4975540;28;20388;-57
2022/04/23 02:11:32;;;;;;;13.73;9.68;;;10.10;99.90;;;;;;4961014;28;20121;-59
2022/04/23 02:13:58;;;;;;;15.57;10.65;;;10.10;99.90;;;;;;4980937;28;20045;-58
2022/04/23 02:16:26;;;;;;;17.90;11.65;;;10.00;99.90;;;;;;4974776;28;20227;-59
2022/04/23 02:18:52;;;;;;;15.52;10.68;;;10.00;99.90;;;;;;4976671;28;20452;-59
2022/04/23 02:21:17;;;;;;;17.23;11.43;;;10.00;99.90;;;;;;4982407;28;20053;-60
2022/04/23 02:23:44;;;;;;;18.42;11.27;;;10.00;99.90;;;;;;4989680;28;20050;-59
2022/04/23 02:26:10;;;;;;;17.50;11.88;;;10.00;99.90;;;;;;4986440;28;20086;-58
2022/04/23 02:28:38;;;;;;;20.23;12.32;;;10.00;99.90;;;;;;4961499;28;20455;-58
2022/04/23 02:31:05;;;;;;;16.48;11.98;;;9.90;99.90;;;;;;4983115;28;20046;-58
2022/04/23 02:33:31;;;;;;;17.60;12.80;;;9.90;99.90;;;;;;4991622;28;20378;-59
2022/04/23 02:35:57;;;;;;;15.82;11.95;;;9.90;99.90;;;;;;4965333;28;20642;-59
2022/04/23 02:38:23;;;;;;;17.10;12.55;;;9.90;99.90;;;;;;4987441;28;20416;-59
2022/04/23 02:40:48;;;;;;;16.25;12.98;;;9.90;99.90;;;;;;4984642;28;21955;-59
2022/04/23 02:43:14;;;;;;;20.40;12.57;;;9.80;99.90;;;;;;4979613;28;20046;-59
2022/04/23 02:45:41;;;;;;;17.00;12.20;;;9.90;99.90;;;;;;4978442;28;20067;-59
2022/04/23 02:48:07;;;;;;;14.32;11.75;;;9.80;99.90;;;;;;4983552;28;20049;-60
2022/04/23 02:50:37;;;;;;;19.35;12.57;;;9.80;99.90;;;;;;4991305;28;20044;-60
2022/04/23 02:53:04;;;;;;;18.33;12.68;;;9.80;99.90;;;;;;4968546;28;20158;-60
2022/04/23 02:55:34;;;;;;;17.65;12.68;;;9.80;99.90;;;;;;4989105;28;20038;-59
2022/04/23 02:58:02;;;;;;;17.17;13.73;;;9.80;99.90;;;;;;4961293;28;20041;-60
2022/04/23 03:00:28;;;;;;;17.73;13.68;;;9.80;99.90;;;;;;4985080;28;20560;-60
2022/04/23 03:02:54;;;;;;;17.58;12.80;;;9.80;99.90;;;;;;4961930;28;20052;-60
2022/04/23 03:05:21;;;;;;;18.48;12.73;;;9.70;99.90;;;;;;4968871;28;20535;-60
2022/04/23 03:07:48;;;;;;;17.30;13.07;;;9.70;99.90;;;;;;4983298;28;20057;-60
2022/04/23 03:10:15;;;;;;;21.42;13.23;;;9.70;99.90;;;;;;4984612;28;20052;-59
2022/04/23 03:12:42;;;;;;;18.67;12.82;;;9.70;99.90;;;;;;4986540;28;20069;-58
2022/04/23 03:15:13;;;;;;;16.83;13.27;;;9.60;99.90;;;;;;4993187;28;20050;-59
2022/04/23 03:17:39;;;;;;;16.67;13.70;;;9.60;99.90;;;;;;4970031;28;20052;-59
2022/04/23 03:20:10;;;;;;;17.55;13.38;;;9.60;99.90;;;;;;4984138;28;20041;-59
2022/04/23 03:22:40;;;;;;;19.58;12.60;;;9.70;99.90;;;;;;4983422;28;20121;-60
2022/04/23 03:25:11;;;;;;;16.45;11.75;;;9.60;99.90;;;;;;4995357;28;20058;-60
2022/04/23 03:27:37;;;;;;;20.75;14.13;;;9.60;99.90;;;;;;4982820;28;20046;-59
2022/04/23 03:30:04;;;;;;;17.63;12.25;;;9.50;99.90;;;;;;4986426;28;20080;-59
2022/04/23 03:32:31;;;;;;;17.48;13.15;;;9.50;99.90;;;;;;4987211;28;20406;-60
2022/04/23 03:34:59;;;;;;;20.17;14.90;;;9.50;99.90;;;;;;4969788;28;20038;-58
2022/04/23 03:37:25;;;;;;;19.63;14.55;;;9.50;99.90;;;;;;4990699;28;20383;-60
2022/04/23 03:39:51;;;;;;;19.98;14.27;;;9.50;99.90;;;;;;4969684;28;20046;-59
2022/04/23 03:42:17;;;;;;;19.30;14.45;;;9.50;99.90;;;;;;4983251;28;20108;-60
2022/04/23 03:44:42;;;;;;;21.10;13.50;;;9.40;99.90;;;;;;4961490;28;20037;-60
2022/04/23 03:47:08;;;;;;;17.88;13.10;;;9.40;99.90;;;;;;4984382;28;20769;-60
2022/04/23 03:49:34;;;;;;;17.67;13.05;;;9.40;99.90;;;;;;4996994;28;20037;-60
2022/04/23 03:51:59;;;;;;;19.38;14.07;;;9.40;99.90;;;;;;4951602;28;20041;-59
2022/04/23 03:54:26;;;;;;;19.02;13.80;;;9.40;99.90;;;;;;4947363;28;20076;-59
2022/04/23 03:56:52;;;;;;;18.20;14.02;;;9.40;99.90;;;;;;4981220;28;20504;-59
2022/04/23 03:59:21;;;;;;;17.60;12.93;;;9.40;99.90;;;;;;4973761;28;20054;-60
2022/04/23 04:01:55;;;;;;;17.23;12.88;;;9.40;99.90;;;;;;4980792;28;20505;-58
2022/04/23 04:04:21;;;;;;;17.98;12.80;;;9.40;99.90;;;;;;4992304;28;20554;-59
2022/04/23 04:06:47;;;;;;;19.38;14.13;;;9.40;99.90;;;;;;4969534;28;20042;-59
2022/04/23 04:09:12;;;;;;;17.00;12.80;;;9.40;99.90;;;;;;4975267;28;20220;-58
2022/04/23 04:14:22;;;;;;;18.50;13.30;;;9.30;99.90;;;;;;4983111;28;20072;-59
2022/04/23 04:16:49;;;;;;;18.48;12.60;;;9.20;99.90;;;;;;4963236;28;20505;-59
2022/04/23 04:19:15;;;;;;;19.48;13.55;;;9.30;99.90;;;;;;5002732;28;20051;-59
2022/04/23 04:21:46;;;;;;;18.30;12.32;;;9.20;99.90;;;;;;4956844;28;20054;-59
2022/04/23 04:24:13;;;;;;;17.77;12.45;;;9.20;99.90;;;;;;4974486;28;21139;-60
2022/04/23 04:26:43;;;;;;;15.75;12.65;;;9.30;99.90;;;;;;4963529;28;20053;-60
2022/04/23 04:29:10;;;;;;;18.17;12.02;;;9.30;99.90;;;;;;4992051;28;20099;-58
2022/04/23 04:31:49;;;;;;;16.05;12.65;;;9.20;99.90;;;;;;4980615;28;20117;-58
2022/04/23 04:34:16;;;;;;;15.98;12.27;;;9.20;99.90;;;;;;4994696;28;20352;-59
2022/04/23 04:36:41;;;;;;;15.98;12.07;;;9.20;99.90;;;;;;4950481;28;20408;-60
2022/04/23 04:39:07;;;;;;;15.93;12.23;;;9.30;99.90;;;;;;4950888;28;20190;-59
2022/04/23 04:41:35;;;;;;;17.70;12.38;;;9.30;99.90;;;;;;4971775;28;20045;-59
2022/04/23 04:44:02;;;;;;;15.07;11.65;;;9.30;99.90;;;;;;4952164;28;20038;-59
2022/04/23 04:46:27;;;;;;;15.02;11.73;;;9.30;99.90;;;;;;4997778;28;20038;-59
2022/04/23 04:48:53;;;;;;;15.73;11.93;;;9.30;99.90;;;;;;4976649;28;20084;-56
2022/04/23 04:51:19;;;;;;;18.42;13.15;;;9.30;99.90;;;;;;4983783;28;20145;-60
2022/04/23 04:53:44;;;;;;;15.40;12.13;;;9.30;99.90;;;;;;4967113;28;20038;-59
2022/04/23 04:56:10;;;;;;;14.15;11.75;;;9.30;99.90;;;;;;4981082;28;20046;-60
2022/04/23 04:58:36;;;;;;;14.70;12.50;;;9.30;99.90;;;;;;4972980;28;20052;-59
2022/04/23 05:01:03;;;;;;;13.65;10.77;;;9.30;99.90;;;;;;4973247;28;20412;-59
2022/04/23 05:03:29;;;;;;;15.63;12.18;;;9.30;99.90;;;;;;4964100;28;20089;-58
2022/04/23 05:05:55;;;;;;;16.20;12.70;;;9.40;99.90;;;;;;4969620;28;20183;-58
2022/04/23 05:08:21;;;;;;;18.35;13.77;;;9.40;99.90;;;;;;4985161;28;20505;-59
2022/04/23 05:10:47;;;;;;;17.58;12.50;;;9.30;99.90;;;;;;4990599;28;21024;-58
2022/04/23 05:13:13;;;;;;;16.73;12.35;;;9.30;99.90;;;;;;4973418;28;20249;-59
2022/04/23 05:15:39;;;;;;;16.90;12.35;;;9.30;99.90;;;;;;4960685;28;20060;-59
2022/04/23 05:18:05;;;;;;;14.85;12.35;;;9.30;99.90;;;;;;4963076;28;20695;-58
2022/04/23 05:20:30;;;;;;;14.50;11.18;;;9.40;99.90;;;;;;4980782;28;20052;-57
2022/04/23 05:22:56;;;;;;;19.05;12.80;;;9.40;99.90;;;;;;4967006;28;20050;-59
2022/04/23 05:25:22;;;;;;;16.05;12.15;;;9.40;99.90;;;;;;4979369;28;20038;-59
2022/04/23 05:27:48;;;;;;;18.15;12.48;;;9.40;99.90;;;;;;4974030;28;20046;-61
2022/04/23 05:30:13;;;;;;;15.55;11.38;;;9.50;99.90;;;;;;4973930;28;20521;-60
2022/04/23 05:32:39;;;;;;;14.70;12.45;;;9.50;99.90;;;;;;4980083;28;20386;-59
2022/04/23 05:35:05;;;;;;;17.17;12.57;;;9.50;99.90;;;;;;4976352;28;20050;-59
2022/04/23 05:37:31;;;;;;;13.30;11.60;;;9.50;99.90;;;;;;4959700;28;20050;-57
2022/04/23 05:39:56;;;;;;;14.98;12.15;;;9.50;99.90;;;;;;4993038;28;20041;-59
2022/04/23 05:42:22;;;;;;;15.88;11.52;;;9.60;99.90;;;;;;4972186;28;20048;-61
2022/04/23 05:44:48;;;;;;;13.40;11.32;;;9.60;99.90;;;;;;4995405;28;20056;-60
2022/04/23 05:47:13;;;;;;;15.23;11.48;;;9.70;99.90;;;;;;4963847;28;20249;-59
2022/04/23 05:49:39;;;;;;;16.02;12.40;;;9.70;99.90;;;;;;4961663;28;20124;-59
2022/04/23 05:52:05;;;;;;;14.07;11.77;;;9.80;99.90;;;;;;4968201;28;20041;-59
2022/04/23 05:54:31;;;;;;;15.23;12.60;;;9.80;99.90;;;;;;4997354;28;20149;-58
2022/04/23 05:56:57;;;;;;;13.88;12.07;;;9.90;99.90;;;;;;4954119;28;20064;-57
2022/04/23 05:59:26;;;;;;;15.80;11.73;;;9.90;99.90;;;;;;4979760;28;20137;-64
2022/04/23 06:01:51;;;;;;;16.45;12.52;;;10.00;99.90;;;;;;4979899;28;20480;-56
2022/04/23 06:04:17;;;;;;;15.80;12.70;;;10.00;99.90;;;;;;4973766;28;20049;-59
2022/04/23 06:06:43;;;;;;;13.88;11.50;;;10.00;99.90;;;;;;4979752;23;20147;-63
2022/04/23 06:09:08;;;;;;;13.80;12.02;;;10.10;99.90;;;;;;4969878;28;20076;-62
2022/04/23 06:11:34;;;;;;;13.13;11.18;;;10.10;99.90;;;;;;4977009;28;20046;-64
2022/04/23 06:14:01;;;;;;;12.38;10.93;;;10.20;99.90;;;;;;4982309;28;20180;-63
2022/04/23 06:16:26;;;;;;;14.52;11.55;;;10.20;99.90;;;;;;4979139;28;20751;-61
2022/04/23 06:18:52;;;;;;;14.23;12.43;;;10.30;99.90;;;;;;4973257;28;20063;-60
2022/04/23 06:21:19;;;;;;;12.20;10.65;;;10.40;99.90;;;;;;4984218;28;20050;-62
2022/04/23 06:23:44;;;;;;;13.90;10.23;;;10.40;99.90;;;;;;4969407;28;20471;-61
2022/04/23 06:26:10;;;;;;;11.68;10.43;;;10.50;99.90;;;;;;4941449;28;20504;-63
2022/04/23 06:28:36;;;;;;;11.70;10.48;;;10.60;99.90;;;;;;4957787;28;20125;-61
2022/04/23 06:31:02;;;;;;;14.25;10.65;;;10.70;99.90;;;;;;4961799;28;20170;-60
2022/04/23 06:33:27;;;;;;;16.10;10.70;;;10.70;99.90;;;;;;4966273;28;20038;-62
2022/04/23 06:35:53;;;;;;;15.25;10.95;;;10.80;99.90;;;;;;4974041;28;20038;-61
2022/04/23 06:38:19;;;;;;;18.02;12.23;;;10.90;99.90;;;;;;4957835;28;20328;-60
2022/04/23 06:40:45;;;;;;;13.68;10.98;;;11.00;99.90;;;;;;4964952;28;20042;-63
2022/04/23 06:43:10;;;;;;;11.93;10.60;;;11.00;99.90;;;;;;4943262;28;20499;-60
2022/04/23 06:45:36;;;;;;;13.95;10.63;;;11.00;99.90;;;;;;4945263;28;20116;-60
2022/04/23 06:48:06;;;;;;;14.27;10.32;;;11.00;99.90;;;;;;4967643;28;20038;-60
2022/04/23 06:50:33;;;;;;;12.00;10.73;;;11.10;99.90;;;;;;4965819;28;20066;-62
2022/04/23 06:53:03;;;;;;;12.80;11.43;;;11.20;99.90;;;;;;4961693;28;20489;-61
2022/04/23 06:55:30;;;;;;;14.48;10.75;;;11.20;99.90;;;;;;4977481;28;20928;-63
2022/04/23 06:57:56;;;;;;;14.48;10.35;;;11.20;99.90;;;;;;4972548;28;20509;-61
2022/04/23 07:00:22;;;;;;;14.20;11.60;;;11.30;99.90;;;;;;4953479;28;20112;-62
2022/04/23 07:02:54;;;;;;;14.57;10.95;;;11.40;99.90;;;;;;4972148;28;20077;-62
2022/04/23 07:05:21;;;;;;;14.10;10.48;;;11.40;99.90;;;;;;4966127;28;20836;-64
2022/04/23 07:07:58;;;;;;;13.05;10.57;;;11.60;99.90;;;;;;4932223;28;20046;-64
2022/04/23 07:10:26;;;;;;;13.32;10.40;;;11.60;99.90;;;;;;4974749;28;20053;-62
2022/04/23 07:12:53;;;;;;;14.32;10.80;;;11.70;99.90;;;;;;4982136;28;20379;-60
2022/04/23 07:15:28;;;;;;;12.68;10.88;;;11.80;99.90;;;;;;4953143;28;20042;-61
2022/04/23 07:17:53;;;;;;;12.65;10.85;;;11.90;99.90;;;;;;4956764;28;20038;-62
2022/04/23 07:20:19;;;;;;;11.25;10.05;;;12.00;99.90;;;;;;4976797;28;20378;-61
2022/04/23 07:25:31;;;;;;;12.93;10.60;;;12.30;99.90;;;;;;4973554;28;20477;-61
2022/04/23 07:27:58;;;;;;;15.10;11.13;;;12.30;99.20;;;;;;4977935;28;20026;-61
2022/04/23 07:30:25;;;;;;;13.27;10.23;;;12.30;99.00;;;;;;4987793;28;20292;-63
2022/04/23 07:32:55;;;;;;;13.38;10.38;;;12.30;98.90;;;;;;4975416;28;20915;-60
2022/04/23 07:38:13;;;;;;;16.10;11.30;;;12.40;98.50;;;;;;4982604;28;20425;-63
2022/04/23 07:40:46;;;;;;;17.67;11.77;;;12.50;98.00;;;;;;4971161;28;20050;-61
2022/04/23 07:43:14;;;;;;;14.13;10.55;;;12.50;97.90;;;;;;4974135;28;20561;-61
2022/04/23 07:45:41;;;;;;;15.32;10.65;;;12.60;97.50;;;;;;4975231;28;20038;-61
2022/04/23 07:48:09;;;;;;;14.02;10.48;;;12.70;96.90;;;;;;4974312;28;20400;-61
2022/04/23 07:50:36;;;;;;;16.65;10.48;;;12.70;97.40;;;;;;4973998;28;20565;-62
2022/04/23 07:53:02;;;;;;;13.68;11.07;;;12.90;96.80;;;;;;4977616;28;20181;-61
2022/04/23 07:55:32;;;;;;;14.25;10.88;;;13.00;96.20;;;;;;4976517;28;20882;-62
2022/04/23 07:57:59;;;;;;;12.40;10.07;;;13.00;95.70;;;;;;4962607;28;20050;-62
2022/04/23 08:00:25;;;;;;;12.77;9.82;;;13.20;95.70;;;;;;4982144;28;20101;-62
2022/04/23 08:02:52;;;;;;;13.27;10.32;;;13.10;94.60;;;;;;4982312;28;20202;-61
2022/04/23 08:05:18;;;;;;;11.70;9.85;;;13.20;94.00;;;;;;4968380;28;20618;-63
2022/04/23 08:07:44;;;;;;;12.13;9.73;;;13.20;93.50;;;;;;4987111;28;20084;-62
2022/04/23 08:10:11;;;;;;;10.40;9.27;;;13.20;93.30;;;;;;4985846;28;20042;-59
2022/04/23 08:12:37;;;;;;;10.38;9.02;;;13.40;93.30;;;;;;4946248;28;20048;-60
2022/04/23 08:15:04;;;;;;;13.35;9.25;;;13.50;91.70;;;;;;4963520;28;20121;-61
2022/04/23 08:17:30;;;;;;;10.10;9.05;;;13.40;90.60;;;;;;4977087;28;20296;-62
2022/04/23 08:19:56;;;;;;;11.32;9.57;;;13.50;90.90;;;;;;4957435;28;20034;-63
2022/04/23 08:22:22;;;;;;;12.88;10.30;;;13.60;90.40;;;;;;4972852;28;20041;-61
2022/04/23 08:24:48;;;;;;;11.15;9.93;;;13.50;89.60;;;;;;4958764;28;20070;-62
2022/04/23 08:27:13;;;;;;;12.38;10.20;;;13.60;90.00;;;;;;4963434;28;20049;-59
2022/04/23 08:32:23;;;;;;;12.10;10.40;;;13.80;90.40;;;;;;4977926;28;20041;-62
2022/04/23 08:34:49;;;;;;;12.25;9.32;;;14.00;90.30;;;;;;4989844;28;20663;-60
2022/04/23 08:37:14;;;;;;;13.10;9.57;;;14.10;88.50;;;;;;4962395;28;20049;-62
2022/04/23 08:39:42;;;;;;;13.20;9.50;;;14.10;87.20;;;;;;4968535;28;20108;-61
2022/04/23 08:42:09;;;;;;;10.23;9.20;;;14.10;84.70;;;;;;4967743;28;20050;-61
2022/04/23 08:44:38;;;;;;;12.32;8.90;;;14.10;86.10;;;;;;4977871;28;20053;-61
2022/04/23 08:47:05;;;;;;;11.70;10.27;;;14.20;85.40;;;;;;4959753;28;20213;-62
2022/04/23 08:49:35;;;;;;;13.43;9.88;;;14.30;83.70;;;;;;4973839;28;20102;-61
2022/04/23 08:52:21;;;;;;;11.52;9.95;;;14.20;81.90;;;;;;4967981;28;20038;-62
2022/04/23 08:54:48;;;;;;;13.73;9.65;;;14.20;81.80;;;;;;4967644;28;20033;-61
2022/04/23 08:57:14;;;;;;;11.38;9.98;;;14.20;82.60;;;;;;4980094;28;20041;-62
2022/04/23 08:59:44;;;;;;;12.88;9.95;;;14.20;81.40;;;;;;4956235;28;20042;-61
2022/04/23 09:02:13;;;;;;;10.65;9.10;;;14.30;83.50;;;;;;4967739;28;20117;-61
2022/04/23 09:04:42;;;;;;;10.63;9.52;;;14.40;81.50;;;;;;4972888;28;21613;-61
2022/04/23 09:07:18;;;;;;;11.35;9.50;;;14.50;82.90;;;;;;4974451;28;20176;-63
2022/04/23 09:09:48;;;;;;;10.43;9.23;;;14.60;81.70;;;;;;4958066;28;20576;-59
2022/04/23 09:12:14;;;;;;;11.27;9.93;;;14.70;83.10;;;;;;4981453;28;20046;-62
2022/04/23 09:14:39;;;;;;;10.40;8.98;;;14.90;84.00;;;;;;4967748;28;20489;-60
2022/04/23 09:25:35;;;;;;;14.80;10.20;;;14.90;81.70;;;;;;4983055;28;20133;-63
2022/04/23 09:28:26;;;;;;;12.20;10.25;;;15.10;80.60;;;;;;4977959;28;20088;-61
2022/04/23 09:30:54;;;;;;;13.32;10.27;;;15.30;79.70;;;;;;4982836;28;20042;-63
2022/04/23 09:33:27;;;;;;;11.15;9.98;;;15.40;80.50;;;;;;4989467;28;20042;-62
2022/04/23 09:36:03;;;;;;;10.73;9.63;;;15.40;79.70;;;;;;4980250;28;20054;-60
2022/04/23 09:38:30;;;;;;;10.70;9.57;;;15.40;78.00;;;;;;4982702;28;20050;-61
2022/04/23 09:41:21;;;;;;;13.52;9.85;;;15.40;80.60;;;;;;4944061;28;20487;-66
2022/04/23 09:44:03;;;;;;;11.35;10.18;;;15.70;81.60;;;;;;4961074;28;20056;-58
2022/04/23 09:46:45;;;;;;;11.00;9.50;;;15.80;79.50;;;;;;4989201;28;20394;-63
2022/04/23 09:49:12;;;;;;;11.75;9.52;;;15.80;80.00;;;;;;4989518;28;20046;-62
2022/04/23 09:51:38;;;;;;;11.52;9.55;;;15.80;78.10;;;;;;4977362;28;20139;-58
2022/04/23 09:54:04;;;;;;;11.50;10.32;;;15.70;78.20;;;;;;4983159;28;20448;-61
2022/04/23 09:56:30;;;;;;;14.77;9.48;;;15.70;78.20;;;;;;4986161;28;20080;-59
2022/04/23 09:58:56;;;;;;;12.20;10.27;;;16.00;78.60;;;;;;4966378;28;20841;-61
2022/04/23 10:01:23;;;;;;;11.07;10.07;;;16.20;79.40;;;;;;4956247;28;20046;-59
2022/04/23 10:03:50;;;;;;;12.57;10.32;;;16.40;79.10;;;;;;4984404;28;20125;-60
2022/04/23 10:06:18;;;;;;;11.73;10.52;;;16.30;75.40;;;;;;4974320;28;20433;-60
2022/04/23 10:08:59;;;;;;;13.25;10.73;;;16.20;76.00;;;;;;4998645;28;20547;-61
2022/04/23 10:11:33;;;;;;;12.48;10.10;;;16.20;78.30;;;;;;4958961;28;20045;-63
2022/04/23 10:14:03;;;;;;;13.52;9.88;;;16.20;78.10;;;;;;4974235;28;20096;-63
2022/04/23 10:16:33;;;;;;;12.18;10.05;;;16.30;77.90;;;;;;4971939;28;20069;-59
2022/04/23 10:18:59;;;;;;;11.55;10.45;;;16.40;76.30;;;;;;4970493;28;20057;-61
2022/04/23 10:21:31;;;;;;;11.85;10.00;;;16.40;75.10;;;;;;4971466;28;20042;-59
2022/04/23 10:24:13;;;;;;;15.95;11.50;;;16.20;74.50;;;;;;4966719;28;20058;-61
2022/04/23 10:26:55;;;;;;;12.02;10.52;;;16.30;77.30;;;;;;4946105;28;20061;-59
2022/04/23 10:29:27;;;;;;;14.15;10.80;;;16.40;75.60;;;;;;4976549;28;20433;-61
2022/04/23 10:32:14;;;;;;;10.60;9.50;;;16.50;74.50;;;;;;4969289;28;20053;-59
2022/04/23 10:34:40;;;;;;;12.63;10.23;;;16.50;76.20;;;;;;4972895;28;20049;-58
2022/04/23 10:37:18;;;;;;;11.38;10.05;;;16.70;75.20;;;;;;4961717;28;20040;-62
2022/04/23 10:39:53;;;;;;;11.68;10.27;;;16.70;71.00;;;;;;4974079;28;20161;-60
2022/04/23 10:42:21;;;;;;;11.98;9.25;;;16.60;71.00;;;;;;4983416;28;20361;-61
2022/04/23 10:44:48;;;;;;;10.57;9.52;;;16.50;70.80;;;;;;4974026;28;20057;-60
2022/04/23 10:47:35;;;;;;;12.68;9.68;;;16.30;71.50;;;;;;4974384;28;20448;-60
2022/04/23 10:50:22;;;;;;;10.85;9.73;;;16.70;73.40;;;;;;4976810;28;20041;-61
2022/04/23 10:52:53;;;;;;;14.05;9.35;;;16.70;69.50;;;;;;4983004;28;20045;-61
2022/04/23 10:55:21;;;;;;;10.52;9.43;;;16.80;68.30;;;;;;4956934;28;20524;-63
2022/04/23 10:57:50;;;;;;;12.52;9.30;;;16.70;68.30;;;;;;4982277;28;20034;-60
2022/04/23 11:00:24;;;;;;;14.70;10.15;;;16.60;70.50;;;;;;4966322;28;20333;-61
2022/04/23 11:02:57;;;;;;;10.40;9.13;;;16.80;69.70;;;;;;4978189;28;20052;-60
2022/04/23 11:13:50;;;;;;;10.93;9.45;;;17.10;66.10;;;;;;4969610;28;21847;-59
2022/04/23 11:16:18;;;;;;;10.38;9.20;;;17.20;68.80;;;;;;4951115;28;20157;-59
2022/04/23 11:18:49;;;;;;;10.48;9.00;;;17.30;65.40;;;;;;4952177;28;20463;-61
2022/04/23 11:21:21;;;;;;;10.88;8.48;;;17.00;62.10;;;;;;4954915;28;20120;-63
2022/04/23 11:23:47;;;;;;;12.45;9.07;;;17.10;65.30;;;;;;4975140;28;20049;-58
2022/04/23 11:26:14;;;;;;;12.05;8.57;;;17.20;66.00;;;;;;4962875;28;20217;-63
2022/04/23 11:28:41;;;;;;;9.93;8.48;;;17.40;63.50;;;;;;4961769;28;20046;-60
2022/04/23 11:31:17;;;;;;;10.10;7.72;;;17.40;62.60;;;;;;4975814;28;20045;-60
2022/04/23 11:33:55;;;;;;;11.77;8.90;;;17.30;65.20;;;;;;4970112;28;20162;-63
2022/04/23 11:36:26;;;;;;;9.15;8.25;;;17.40;62.20;;;;;;4971688;28;20046;-60
2022/04/23 11:38:53;;;;;;;10.60;8.43;;;17.60;63.20;;;;;;4971343;28;20291;-60
2022/04/23 11:41:30;;;;;;;11.63;8.82;;;17.70;63.60;;;;;;4968210;28;21133;-62
2022/04/23 11:43:56;;;;;;;11.68;8.88;;;17.70;62.20;;;;;;4975194;28;20104;-60
2022/04/23 11:46:22;;;;;;;12.15;9.18;;;17.80;62.30;;;;;;4960508;28;20050;-61
2022/04/23 11:48:50;;;;;;;11.70;9.30;;;17.90;61.60;;;;;;4961952;28;20038;-60
2022/04/23 11:51:18;;;;;;;11.77;9.18;;;17.80;61.40;;;;;;4966598;28;20041;-57
2022/04/23 11:54:00;;;;;;;9.70;8.70;;;17.90;62.10;;;;;;4992994;28;20041;-63
2022/04/23 11:56:28;;;;;;;9.10;8.20;;;18.00;61.10;;;;;;4993325;28;20038;-59
2022/04/23 11:58:56;;;;;;;10.77;8.68;;;18.20;60.90;;;;;;5003042;28;20081;-60
2022/04/23 12:01:26;;;;;;;11.63;8.45;;;18.10;60.30;;;;;;4983458;28;20408;-60
2022/04/23 12:03:54;;;;;;;11.43;9.82;;;18.00;59.50;;;;;;4984626;28;20045;-67
2022/04/23 12:06:21;;;;;;;10.88;9.77;;;17.70;59.20;;;;;;5001102;28;20088;-63
2022/04/23 12:08:47;;;;;;;10.50;8.55;;;17.90;60.00;;;;;;4990985;28;20454;-62
2022/04/23 12:11:39;;;;;;;12.23;8.55;;;18.00;60.30;;;;;;5000799;28;20080;-60
2022/04/23 12:14:05;;;;;;;9.85;8.00;;;18.20;57.90;;;;;;5018232;28;20049;-61
2022/04/23 12:16:40;;;;;;;10.07;9.07;;;18.30;58.90;;;;;;4993466;28;20623;-62
2022/04/23 12:19:12;;;;;;;9.63;8.52;;;18.30;57.80;;;;;;5008897;28;20049;-60
2022/04/23 12:21:38;;;;;;;10.20;9.20;;;18.40;60.00;;;;;;5000420;28;20038;-59
2022/04/23 12:24:07;;;;;;;9.98;9.00;;;18.50;59.10;;;;;;5009587;28;20104;-60
2022/04/23 12:26:38;;;;;;;9.20;8.13;;;18.50;59.50;;;;;;4996447;28;20497;-64
2022/04/23 12:43:18;;;;;;;8.82;7.28;;;18.90;58.00;;;;;;4999092;28;20684;-60
2022/04/23 12:45:44;;;;;;;10.10;9.00;;;19.00;59.00;;;;;;4960014;28;20233;-62
2022/04/23 12:48:10;;;;;;;10.07;8.32;;;18.80;55.30;;;;;;4972863;28;20915;-60
2022/04/23 12:50:36;;;;;;;10.25;8.43;;;18.80;57.10;;;;;;4973042;28;20042;-61
2022/04/23 12:53:01;;;;;;;10.80;8.13;;;18.80;57.70;;;;;;4983842;28;20187;-61
2022/04/23 12:55:36;;;;;;;9.13;7.95;;;18.80;57.40;;;;;;4988040;28;20045;-59
2022/04/23 12:58:02;;;;;;;9.68;7.75;;;19.00;57.80;;;;;;4988917;28;20498;-61
2022/04/23 13:00:28;;;;;;;12.02;7.80;;;19.10;55.10;;;;;;4980132;28;20064;-60
2022/04/23 13:03:03;;;;;;;8.45;7.55;;;19.00;55.10;;;;;;4967484;28;20057;-58
2022/04/23 13:05:29;;;;;;;10.13;8.05;;;19.20;57.20;;;;;;4998363;28;20057;-59
2022/04/23 13:10:39;;;;;;;11.48;8.65;;;19.30;56.50;;;;;;4985120;28;20509;-59
2022/04/23 13:13:09;;;;;;;12.70;8.25;;;19.30;54.50;;;;;;4967701;28;20046;-61
2022/04/23 13:15:36;;;;;;;9.18;8.20;;;19.10;54.90;;;;;;4988518;28;20046;-60
2022/04/23 13:18:03;;;;;;;8.90;8.00;;;19.30;55.80;;;;;;4977718;28;20069;-59
2022/04/23 13:20:29;;;;;;;8.73;7.68;;;19.30;55.10;;;;;;4979859;28;20042;-62
2022/04/23 13:22:55;;;;;;;9.38;7.85;;;19.40;54.30;;;;;;4964969;28;20052;-62
2022/04/23 13:25:22;;;;;;;10.95;7.95;;;19.30;54.30;;;;;;5002027;28;20401;-61